Nearby METAR Reports

 

KPMP - Pompano Beach, Florida, USA
Distance from station: NNW 3mi, 5km
Updated: 09/16/2021 6:53am
Clear
Clear
 Wind from calm
Wind: Calm
Temperature: 79°F , 26°C
Dew Point: 73°F , 23°C
Humidity: 84%
Barometer: 29.94 inHg , 1013.9 hPa
Clouds: Clear
Visibility: 10 miles , 16 km
2021/09/16 10:53 KPMP 161053Z 00000KT 10SM CLR 26/23 A2994 RMK AO2 SLP138 T02560228
KFXE - Ft Lauderd/Exec, Florida, USA
Distance from station: W 6mi, 9km
Updated: 09/16/2021 6:53am
Clear
Clear
 Wind from calm
Wind: Calm
Temperature: 77°F , 25°C
Dew Point: 75°F , 24°C
Humidity: 94%
Barometer: 29.93 inHg , 1013.5 hPa
Clouds: Clear
Visibility: 10 miles , 16 km
2021/09/16 10:53 KFXE 161053Z 00000KT 10SM CLR 25/24 A2993 RMK AO2 SLP138 T02500239
 
KFLL - Ft Lauderd/Holly, Florida, USA
Distance from station: SSW 11mi, 17km
Updated: 09/16/2021 6:53am
Partly cloudy
Partly cloudy
 Wind from calm
Wind: Calm
Temperature: 77°F , 25°C
Dew Point: 77°F , 25°C
Humidity: 100%
Barometer: 29.93 inHg , 1013.5 hPa
Clouds: Partly cloudy
Visibility: 10 miles , 16 km
Cloud details: Few Clouds 2500 ft
Partly cloudy 25000 ft
2021/09/16 10:53 KFLL 161053Z 00000KT 10SM FEW025 SCT250 25/25 A2993 RMK AO2 SLP134 T02560244 $
KBCT - Boca Raton, Florida, USA
Distance from station: N 12mi, 19km
Updated: 09/16/2021 6:53am
Clear
Clear
 Wind from calm
Wind: Calm
Temperature: 77°F , 25°C
Dew Point: 75°F , 24°C
Humidity: 94%
Barometer: 29.94 inHg , 1013.9 hPa
Clouds: Clear
Visibility: 10 miles , 16 km
2021/09/16 10:53 KBCT 161053Z 00000KT 10SM CLR 25/24 A2994
 
KHWO - Hollywood, Florida, USA
Distance from station: SSW 17mi, 27km
Updated: 09/16/2021 6:53am
Clear
Clear
 Wind from calm
Wind: Calm
Temperature: 75°F , 24°C
Dew Point: 73°F , 23°C
Humidity: 94%
Barometer: 29.95 inHg , 1014.2 hPa
Clouds: Clear
Visibility: 10 miles , 16 km
2021/09/16 10:53 KHWO 161053Z 00000KT 10SM CLR 24/23 A2995 RMK AO2 SLP141 T02390228 $
KOPF - Miami/Opa Locka, Florida, USA
Distance from station: SSW 24mi, 38km
Updated: 09/16/2021 6:53am
Clear
Clear
 Wind from calm
Wind: Calm
Temperature: 75°F , 24°C
Dew Point: 73°F , 23°C
Humidity: 94%
Barometer: 29.94 inHg , 1013.9 hPa
Clouds: Clear
Visibility: 10 miles , 16 km
2021/09/16 10:53 KOPF 161053Z 00000KT 10SM CLR 24/23 A2994 RMK AO2 SLP140 T02440228
 
KMIA - Miami, Florida, USA
Distance from station: SSW 31mi, 50km
Updated: 09/16/2021 6:53am
Partly cloudy
Partly cloudy
 Wind from calm
Wind: Calm
Temperature: 79°F , 26°C
Dew Point: 75°F , 24°C
Humidity: 89%
Barometer: 29.94 inHg , 1013.9 hPa
Clouds: Partly cloudy
Visibility: 10 miles , 16 km
Cloud details: Partly cloudy 25000 ft
2021/09/16 10:53 KMIA 161053Z 00000KT 10SM SCT250 26/24 A2994 RMK AO2 SLP138 T02560239 $
KPBI - West Palm Beach, Florida, USA
Distance from station: N 33mi, 52km
Updated: 09/16/2021 6:53am
Few Clouds
Few Clouds
 Wind from calm
Wind: Calm
Temperature: 77°F , 25°C
Dew Point: 73°F , 23°C
Humidity: 89%
Barometer: 29.94 inHg , 1013.9 hPa
Clouds: Few Clouds
Visibility: 10 miles , 16 km
Cloud details: Few Clouds 2500 ft
Few Clouds 25000 ft
2021/09/16 10:53 KPBI 161053Z 00000KT 10SM FEW025 FEW250 25/23 A2994 RMK AO2 SLP139 T02500228 $
 
KTMB - Miami/Tamiami, Florida, USA
Distance from station: SSW 44mi, 71km
Updated: 09/16/2021 6:53am
Clear
Clear
 Wind from calm
Wind: Calm
Temperature: 75°F , 24°C
Dew Point: 73°F , 23°C
Humidity: 94%
Barometer: 29.94 inHg , 1013.9 hPa
Clouds: Clear
Visibility: 10 miles , 16 km
2021/09/16 10:53 KTMB 161053Z AUTO 00000KT 10SM CLR 24/23 A2994 RMK AO2 SLP139 T02440228